METAR Data
IDs: Format: Raw Decoded Include TAF

Data at: 2037 UTC 17 Nov 2019

KPOF 171953Z AUTO 20005KT 10SM CLR 09/02 A2996 RMK AO2 SLP150 T00890017
KPOF 171853Z AUTO 24007KT 9SM CLR 09/02 A3000 RMK AO2 SLP162 T00890017
KPOF 171753Z AUTO 19003KT 7SM CLR 07/02 A3003 RMK AO2 SLP174 T00720017 10072 21022 58022
KPOF 171653Z AUTO 00000KT 5SM HZ CLR 06/02 A3008 RMK AO2 SLP188 T00610017
KPOF 171553Z AUTO 00000KT 5SM HZ CLR 04/01 A3009 RMK AO2 SLP196 T00390011
KPOF 171453Z AUTO 00000KT 4SM BR CLR 02/M01 A3010 RMK AO2 SLP197 T00171006 58002
KPOF 171353Z AUTO 00000KT 4SM BR CLR M01/M02 A3010 RMK AO2 SLP200 T10061017
KPOF 171253Z AUTO 00000KT 4SM BR CLR M02/M03 A3011 RMK AO2 SLP201 T10171033
KPOF 171153Z AUTO 35003KT 5SM BR CLR M01/M03 A3010 RMK AO2 SLP199 I1000 I6000 T10111028 10011 21022 56009
KPOF 171053Z AUTO 00000KT 5SM BR CLR M02/M03 A3011 RMK AO2 SLP200 I1000 T10171033
KPOF 170953Z AUTO 00000KT 6SM BR CLR M02/M03 A3012 RMK AO2 SLP203 T10171033
KPOF 170853Z AUTO 00000KT 6SM BR CLR M01/M02 A3013 RMK AO2 SLP207 I3000 T10111022 58013
KPOF 170753Z AUTO 00000KT 6SM BR CLR M01/M02 A3014 RMK AO2 SLP211 I1000 T10061022
KPOF 170653Z AUTO 00000KT 8SM CLR 00/M02 A3016 RMK AO2 SLP216 T00001017
KPOF 170553Z AUTO 00000KT 9SM CLR 01/M01 A3017 RMK AO2 SLP219 I6000 T00111011 10061 20006 401171033 53001
KPOF 170453Z AUTO 06004KT 10SM CLR 03/00 A3015 RMK AO2 SLP214 T00280000
KPOF 170353Z AUTO 00000KT 8SM CLR 01/M01 A3016 RMK AO2 SLP219 T00111006
KPOF 170253Z AUTO 00000KT 7SM CLR 02/01 A3016 RMK AO2 SLP220 I1000 I3000 T00220006 56004
KPOF 170153Z AUTO 00000KT 9SM CLR 03/01 A3017 RMK AO2 SLP221 T00280011
KPOF 170053Z AUTO 00000KT 9SM CLR 03/01 A3017 RMK AO2 SLP223 T00330011
KPOF 162353Z AUTO 00000KT 10SM CLR 06/01 A3018 RMK AO2 SLP224 T00610011 10117 20056 55007
KPOF 162253Z AUTO 13003KT 10SM CLR 09/02 A3018 RMK AO2 SLP224 T00890017
KPOF 162153Z AUTO 12003KT 10SM CLR 11/01 A3019 RMK AO2 SLP227 T01060011
KPOF 162053Z AUTO 09003KT 10SM CLR 11/01 A3020 RMK AO2 SLP230 T01110011 56028
KPOF 161953Z AUTO VRB03KT 10SM CLR 11/01 A3022 RMK AO2 SLP236 T01110006
KPOF 161853Z AUTO 06003KT 10SM CLR 10/00 A3025 RMK AO2 SLP247 T01000000
KPOF 161753Z AUTO VRB03KT 10SM CLR 09/M01 A3028 RMK AO2 SLP259 T00891006 10089 21022 58020
KPOF 161653Z AUTO 04006KT 10SM CLR 07/M01 A3032 RMK AO2 SLP271 T00671011
KPOF 161553Z AUTO 05004KT 9SM CLR 04/M01 A3033 RMK AO2 SLP277 T00441011
KPOF 161453Z AUTO 04007KT 9SM CLR 03/M02 A3034 RMK AO2 SLP279 T00281022 50004
KPOF 161353Z AUTO 35003KT 10SM CLR 01/M03 A3034 RMK AO2 SLP281 T00061033
KPOF 161253Z AUTO 34004KT 10SM CLR M02/M04 A3034 RMK AO2 SLP280 T10171044
KPOF 161153Z AUTO 33004KT 10SM CLR M02/M04 A3033 RMK AO2 SLP277 T10171044 11011 21033 50002
KPOF 161053Z AUTO 00000KT 10SM CLR M02/M04 A3033 RMK AO2 SLP276 T10221044
KPOF 160953Z AUTO 34003KT 10SM CLR M02/M04 A3032 RMK AO2 SLP272 T10171039
KPOF 160853Z AUTO 32004KT 10SM CLR M02/M05 A3032 RMK AO2 SLP272 T10171050 56007